createdAt,value
2019-05-26T00:01:33.722Z,22.03
2019-05-26T00:04:02.662Z,20.60
2019-05-26T00:06:32.064Z,20.40
2019-05-26T00:09:00.783Z,21.80
2019-05-26T00:11:29.321Z,21.63
2019-05-26T00:13:59.965Z,19.60
2019-05-26T00:16:28.965Z,21.27
2019-05-26T00:18:57.992Z,22.43
2019-05-26T00:21:26.593Z,21.17
2019-05-26T00:23:56.330Z,25.53
2019-05-26T00:26:26.101Z,23.70
2019-05-26T00:28:54.436Z,21.63
2019-05-26T00:31:22.774Z,21.33
2019-05-26T00:33:51.297Z,19.77
2019-05-26T00:36:19.869Z,20.83
2019-05-26T00:38:48.670Z,21.83
2019-05-26T00:41:17.311Z,21.80
2019-05-26T00:43:45.588Z,22.87
2019-05-26T00:46:14.423Z,22.80
2019-05-26T00:48:43.362Z,23.13
2019-05-26T00:51:11.681Z,25.47
2019-05-26T00:53:40.002Z,21.03
2019-05-26T00:56:08.802Z,23.47
2019-05-26T00:58:37.421Z,24.03
2019-05-26T01:01:05.865Z,23.87
2019-05-26T01:03:34.487Z,24.80
2019-05-26T01:06:02.986Z,25.60
2019-05-26T01:08:31.818Z,26.53
2019-05-26T01:11:01.392Z,29.03
2019-05-26T01:13:30.578Z,27.83
2019-05-26T01:15:59.412Z,28.13
2019-05-26T01:18:28.258Z,28.37
2019-05-26T01:20:56.601Z,26.47
2019-05-26T01:23:26.154Z,26.50
2019-05-26T01:25:54.917Z,28.10
2019-05-26T01:28:23.535Z,28.00
2019-05-26T01:30:52.361Z,25.57
2019-05-26T01:33:21.296Z,24.93
2019-05-26T01:35:50.149Z,24.47
2019-05-26T01:38:24.085Z,24.73
2019-05-26T01:40:49.870Z,22.20
2019-05-26T01:43:18.805Z,21.57
2019-05-26T01:45:47.740Z,26.52
2019-05-26T01:48:16.014Z,22.17
2019-05-26T01:50:44.705Z,23.87
2019-05-26T01:53:13.422Z,22.67
2019-05-26T01:55:42.009Z,19.80
2019-05-26T01:58:10.571Z,18.77
2019-05-26T02:00:39.177Z,19.50
2019-05-26T02:03:07.650Z,17.57
2019-05-26T02:05:36.624Z,18.97
2019-05-26T02:08:05.409Z,22.67
2019-05-26T02:10:33.902Z,18.07
2019-05-26T02:13:02.378Z,17.23
2019-05-26T02:15:30.950Z,17.47
2019-05-26T02:17:59.634Z,17.80
2019-05-26T02:20:28.479Z,18.43
2019-05-26T02:22:57.224Z,18.67
2019-05-26T02:25:26.179Z,20.17
2019-05-26T02:27:54.785Z,19.33
2019-05-26T02:30:23.347Z,17.27
2019-05-26T02:32:52.224Z,18.40
2019-05-26T02:35:20.820Z,17.27
2019-05-26T02:37:49.348Z,19.62
2019-05-26T02:40:18.447Z,16.87
2019-05-26T02:42:46.927Z,15.27
2019-05-26T02:45:16.107Z,15.07
2019-05-26T02:47:44.769Z,14.70
2019-05-26T02:50:14.757Z,13.80
2019-05-26T02:52:43.193Z,14.70
2019-05-26T02:55:12.008Z,13.97
2019-05-26T02:57:40.629Z,13.20
2019-05-26T03:00:10.485Z,16.48
2019-05-26T03:02:39.386Z,12.90
2019-05-26T03:05:09.007Z,12.17
2019-05-26T03:07:39.528Z,12.43
2019-05-26T03:10:10.188Z,13.00
2019-05-26T03:12:40.889Z,11.83
2019-05-26T03:15:09.873Z,11.43
2019-05-26T03:17:40.239Z,12.43
2019-05-26T03:20:09.245Z,11.03
2019-05-26T03:22:39.772Z,10.67
2019-05-26T03:25:09.982Z,11.13
2019-05-26T03:27:38.619Z,11.17
2019-05-26T03:30:07.483Z,12.45
2019-05-26T03:32:37.425Z,11.57
2019-05-26T03:35:07.618Z,12.20
2019-05-26T03:37:36.488Z,11.67
2019-05-26T03:40:06.258Z,11.63
2019-05-26T03:42:35.090Z,11.80
2019-05-26T03:45:04.440Z,11.17
2019-05-26T03:47:33.022Z,11.90
2019-05-26T03:50:01.502Z,11.10
2019-05-26T03:52:29.970Z,13.83
2019-05-26T03:54:58.457Z,12.10
2019-05-26T03:57:26.848Z,11.73
2019-05-26T03:59:55.332Z,12.13
2019-05-26T04:02:23.875Z,12.63
2019-05-26T04:04:52.613Z,12.00
2019-05-26T04:07:21.252Z,10.80
2019-05-26T04:10:04.116Z,11.07
2019-05-26T04:12:20.243Z,11.10
2019-05-26T04:14:48.886Z,10.43
2019-05-26T04:17:17.728Z,11.27
2019-05-26T04:19:46.611Z,11.77
2019-05-26T04:22:15.233Z,11.90
2019-05-26T04:24:43.881Z,12.17
2019-05-26T04:27:12.335Z,11.13
2019-05-26T04:29:40.658Z,11.50
2019-05-26T04:32:09.069Z,11.37
2019-05-26T04:34:37.382Z,12.47
2019-05-26T04:37:06.151Z,11.23
2019-05-26T04:39:34.622Z,12.07
2019-05-26T04:42:03.211Z,12.23
2019-05-26T04:44:31.702Z,14.53
2019-05-26T04:47:00.270Z,12.30
2019-05-26T04:49:28.541Z,10.93
2019-05-26T04:51:57.313Z,11.17
2019-05-26T04:54:25.578Z,12.17
2019-05-26T04:56:54.010Z,10.93
2019-05-26T04:59:22.432Z,10.50
2019-05-26T05:01:50.785Z,11.13
2019-05-26T05:04:19.420Z,11.07
2019-05-26T05:06:47.905Z,10.03
2019-05-26T05:09:16.586Z,10.07
2019-05-26T05:11:45.325Z,10.20
2019-05-26T05:14:14.169Z,9.07
2019-05-26T05:16:43.005Z,9.20
2019-05-26T05:19:11.997Z,9.80
2019-05-26T05:21:40.625Z,9.37
2019-05-26T05:24:09.306Z,9.70
2019-05-26T05:26:38.079Z,10.27
2019-05-26T05:29:06.693Z,10.70
2019-05-26T05:31:35.266Z,10.37
2019-05-26T05:34:03.999Z,11.47
2019-05-26T05:36:32.797Z,11.43
2019-05-26T05:39:01.794Z,12.43
2019-05-26T05:41:31.034Z,13.03
2019-05-26T05:43:59.838Z,13.23
2019-05-26T05:46:28.405Z,12.43
2019-05-26T05:48:57.051Z,13.37
2019-05-26T05:51:25.506Z,13.80
2019-05-26T05:53:54.158Z,13.10
2019-05-26T05:56:22.919Z,12.37
2019-05-26T05:58:51.698Z,10.73
2019-05-26T06:01:20.521Z,10.90
2019-05-26T06:03:49.264Z,10.30
2019-05-26T06:06:17.941Z,9.43
2019-05-26T06:08:46.581Z,9.60
2019-05-26T06:11:17.187Z,10.97
2019-05-26T06:13:45.729Z,9.93
2019-05-26T06:16:14.845Z,10.00
2019-05-26T06:18:43.687Z,9.53
2019-05-26T06:21:12.133Z,10.17
2019-05-26T06:23:40.654Z,10.00
2019-05-26T06:26:09.225Z,11.23
2019-05-26T06:28:38.219Z,12.10
2019-05-26T06:31:06.878Z,12.63
2019-05-26T06:33:35.404Z,13.67
2019-05-26T06:36:04.311Z,14.10
2019-05-26T06:38:33.165Z,14.57
2019-05-26T06:41:01.706Z,15.50
2019-05-26T06:43:30.277Z,14.80
2019-05-26T06:46:00.154Z,15.27
2019-05-26T06:48:28.502Z,13.77
2019-05-26T06:50:57.031Z,14.37
2019-05-26T06:53:25.297Z,14.07
2019-05-26T06:55:53.751Z,15.10
2019-05-26T06:58:22.096Z,14.23
2019-05-26T07:00:50.405Z,14.20
2019-05-26T07:03:19.074Z,14.10
2019-05-26T07:05:47.528Z,13.67
2019-05-26T07:08:15.853Z,13.10
2019-05-26T07:10:44.329Z,11.40
2019-05-26T07:13:12.972Z,12.20
2019-05-26T07:15:41.772Z,12.63
2019-05-26T07:18:10.709Z,12.77
2019-05-26T07:20:39.293Z,13.20
2019-05-26T07:23:08.539Z,12.23
2019-05-26T07:25:37.195Z,12.27
2019-05-26T07:28:06.142Z,12.90
2019-05-26T07:30:35.977Z,9.50
2019-05-26T07:33:04.583Z,10.03
2019-05-26T07:35:33.305Z,11.13
2019-05-26T07:38:02.161Z,11.53
2019-05-26T07:40:30.780Z,12.60
2019-05-26T07:42:59.582Z,12.10
2019-05-26T07:45:28.121Z,12.27
2019-05-26T07:47:57.095Z,13.00
2019-05-26T07:50:25.861Z,13.17
2019-05-26T07:52:54.374Z,15.03
2019-05-26T07:55:23.148Z,14.03
2019-05-26T07:57:51.428Z,13.20
2019-05-26T08:00:20.322Z,13.50
2019-05-26T08:02:48.955Z,12.87
2019-05-26T08:05:17.613Z,13.20
2019-05-26T08:07:46.397Z,11.00
2019-05-26T08:10:15.062Z,10.77
2019-05-26T08:12:43.874Z,10.93
2019-05-26T08:15:13.769Z,10.00
2019-05-26T08:17:46.296Z,9.57
2019-05-26T08:20:15.287Z,10.83
2019-05-26T08:22:43.973Z,9.03
2019-05-26T08:25:12.801Z,9.47
2019-05-26T08:27:41.493Z,9.53
2019-05-26T08:30:10.158Z,10.13
2019-05-26T08:32:38.637Z,10.23
2019-05-26T08:35:08.019Z,9.53
2019-05-26T08:37:36.666Z,10.40
2019-05-26T08:40:18.850Z,8.23
2019-05-26T08:42:48.637Z,8.10
2019-05-26T08:45:20.831Z,7.43
2019-05-26T08:47:47.506Z,7.57
2019-05-26T08:50:16.261Z,8.27
2019-05-26T08:52:44.770Z,8.43
2019-05-26T08:55:13.265Z,6.57
2019-05-26T08:57:41.857Z,7.53
2019-05-26T09:00:10.578Z,6.70
2019-05-26T09:02:39.221Z,8.13
2019-05-26T09:05:07.981Z,7.97
2019-05-26T09:07:36.550Z,7.90
2019-05-26T09:10:06.216Z,7.10
2019-05-26T09:12:35.658Z,7.87
2019-05-26T09:15:05.274Z,7.77
2019-05-26T09:17:34.427Z,7.20
2019-05-26T09:20:03.412Z,6.40
2019-05-26T09:22:31.987Z,7.00
2019-05-26T09:25:00.622Z,5.93
2019-05-26T09:27:29.531Z,6.40
2019-05-26T09:29:58.503Z,7.03
2019-05-26T09:32:27.132Z,6.70
2019-05-26T09:34:55.362Z,6.63
2019-05-26T09:37:24.213Z,7.40
2019-05-26T09:39:53.151Z,6.23
2019-05-26T09:42:22.494Z,7.03
2019-05-26T09:44:51.113Z,7.50
2019-05-26T09:47:19.554Z,6.03
2019-05-26T09:49:49.333Z,5.83
2019-05-26T09:52:17.936Z,5.73
2019-05-26T09:54:46.698Z,6.03
2019-05-26T09:57:16.321Z,6.17
2019-05-26T09:59:44.829Z,6.30
2019-05-26T10:02:13.354Z,7.10
2019-05-26T10:04:41.980Z,5.77
2019-05-26T10:07:14.915Z,6.40
2019-05-26T10:09:40.966Z,6.90
2019-05-26T10:12:09.507Z,5.60
2019-05-26T10:14:39.103Z,6.30
2019-05-26T10:17:07.952Z,6.47
2019-05-26T10:19:36.501Z,6.73
2019-05-26T10:22:05.426Z,6.53
2019-05-26T10:24:34.164Z,6.30
2019-05-26T10:27:02.770Z,6.00
2019-05-26T10:29:31.547Z,6.73
2019-05-26T10:32:00.178Z,7.67
2019-05-26T10:34:28.660Z,8.97
2019-05-26T10:36:57.591Z,6.70
2019-05-26T10:39:26.191Z,8.70
2019-05-26T10:41:54.786Z,8.70
2019-05-26T10:44:23.617Z,8.57
2019-05-26T10:46:52.341Z,8.87
2019-05-26T10:49:21.405Z,10.13
2019-05-26T10:51:50.265Z,9.87
2019-05-26T10:54:18.962Z,12.95
2019-05-26T10:56:48.002Z,11.20
2019-05-26T10:59:16.406Z,9.93
2019-05-26T11:01:44.987Z,10.37
2019-05-26T11:04:13.674Z,10.97
2019-05-26T11:06:42.109Z,11.40
2019-05-26T11:09:10.783Z,10.77
2019-05-26T11:11:39.536Z,11.57
2019-05-26T11:14:08.197Z,10.60
2019-05-26T11:16:36.881Z,7.63
2019-05-26T11:19:05.154Z,7.00
2019-05-26T11:21:33.550Z,7.50
2019-05-26T11:24:01.803Z,8.00
2019-05-26T11:26:30.761Z,8.00
2019-05-26T11:29:00.439Z,7.70
2019-05-26T11:31:28.897Z,8.00
2019-05-26T11:33:57.266Z,9.90
2019-05-26T11:36:25.682Z,7.57
2019-05-26T11:38:54.282Z,5.43
2019-05-26T11:41:22.817Z,5.50
2019-05-26T11:43:51.505Z,5.17
2019-05-26T11:46:20.538Z,4.80
2019-05-26T11:48:50.149Z,5.10
2019-05-26T11:51:18.788Z,5.37
2019-05-26T11:53:47.425Z,4.93
2019-05-26T11:56:18.064Z,6.00
2019-05-26T11:58:49.560Z,5.30
2019-05-26T12:01:22.684Z,6.20
2019-05-26T12:03:49.896Z,6.70
2019-05-26T12:06:18.589Z,5.67
2019-05-26T12:08:46.987Z,5.17
2019-05-26T12:11:15.293Z,5.03
2019-05-26T12:13:43.983Z,4.70
2019-05-26T12:16:15.076Z,5.10
2019-05-26T12:18:44.469Z,4.53
2019-05-26T12:21:13.462Z,4.33
2019-05-26T12:23:41.898Z,4.40
2019-05-26T12:26:10.385Z,4.47
2019-05-26T12:28:39.112Z,3.90
2019-05-26T12:31:07.789Z,3.93
2019-05-26T12:33:37.169Z,4.50
2019-05-26T12:36:06.173Z,4.10
2019-05-26T12:38:37.181Z,3.50
2019-05-26T12:41:05.865Z,4.30
2019-05-26T12:43:49.197Z,4.03
2019-05-26T12:46:17.717Z,4.70
2019-05-26T12:48:46.235Z,3.70
2019-05-26T12:51:19.830Z,3.73
2019-05-26T12:53:49.018Z,3.97
2019-05-26T12:56:17.821Z,4.03
2019-05-26T12:58:46.590Z,4.13
2019-05-26T13:01:16.195Z,3.90
2019-05-26T13:03:45.090Z,4.53
2019-05-26T13:06:16.866Z,4.63
2019-05-26T13:08:48.203Z,4.93
2019-05-26T13:11:36.785Z,4.00
2019-05-26T13:14:05.987Z,3.70
2019-05-26T13:16:35.931Z,4.00
2019-05-26T13:19:05.002Z,4.03
2019-05-26T13:21:33.889Z,3.50
2019-05-26T13:24:03.042Z,3.33
2019-05-26T13:26:32.253Z,3.40
2019-05-26T13:29:00.824Z,3.73
2019-05-26T13:31:34.038Z,3.67
2019-05-26T13:34:02.639Z,3.40
2019-05-26T13:36:31.201Z,3.50
2019-05-26T13:39:00.228Z,3.30
2019-05-26T13:41:28.755Z,3.53
2019-05-26T13:43:57.379Z,2.87
2019-05-26T13:46:26.074Z,3.37
2019-05-26T13:48:54.799Z,3.30
2019-05-26T13:51:24.674Z,3.30
2019-05-26T13:53:53.216Z,3.07
2019-05-26T13:56:21.666Z,3.47
2019-05-26T13:58:50.609Z,3.47
2019-05-26T14:01:18.917Z,3.50
2019-05-26T14:03:47.602Z,3.70
2019-05-26T14:06:16.539Z,3.40
2019-05-26T14:08:48.146Z,3.60
2019-05-26T14:11:17.486Z,3.57
2019-05-26T14:13:46.254Z,3.60
2019-05-26T14:16:16.947Z,3.50
2019-05-26T14:18:45.901Z,3.30
2019-05-26T14:21:14.492Z,3.20
2019-05-26T14:23:42.866Z,3.33
2019-05-26T14:26:11.289Z,3.40
2019-05-26T14:28:40.039Z,3.47
2019-05-26T14:31:08.638Z,4.40
2019-05-26T14:33:36.981Z,3.10
2019-05-26T14:36:05.942Z,2.70
2019-05-26T14:38:43.248Z,3.57
2019-05-26T14:41:06.551Z,2.93
2019-05-26T14:43:35.898Z,3.50
2019-05-26T14:46:04.525Z,2.60
2019-05-26T14:48:33.153Z,2.60
2019-05-26T14:51:01.898Z,2.83
2019-05-26T14:53:30.734Z,2.60
2019-05-26T14:55:59.230Z,2.77
2019-05-26T14:58:27.867Z,2.93
2019-05-26T15:00:56.293Z,3.37
2019-05-26T15:03:25.327Z,3.20
2019-05-26T15:06:05.425Z,3.30
2019-05-26T15:08:24.392Z,3.87
2019-05-26T15:10:52.805Z,4.10
2019-05-26T15:13:21.511Z,3.43
2019-05-26T15:15:49.886Z,3.47
2019-05-26T15:18:18.821Z,3.90
2019-05-26T15:20:47.245Z,3.13
2019-05-26T15:23:15.659Z,3.50
2019-05-26T15:25:44.423Z,3.97
2019-05-26T15:28:13.357Z,3.83
2019-05-26T15:30:41.694Z,3.10
2019-05-26T15:33:10.293Z,3.60
2019-05-26T15:35:38.838Z,2.90
2019-05-26T15:38:07.602Z,2.93
2019-05-26T15:40:36.180Z,2.93
2019-05-26T15:43:04.815Z,2.57
2019-05-26T15:45:33.550Z,2.47
2019-05-26T15:48:02.261Z,3.00
2019-05-26T15:50:30.919Z,3.03
2019-05-26T15:52:59.661Z,2.83
2019-05-26T15:55:28.413Z,2.47
2019-05-26T15:57:56.945Z,2.90
2019-05-26T16:00:26.102Z,2.53
2019-05-26T16:02:54.909Z,3.20
2019-05-26T16:05:23.341Z,3.07
2019-05-26T16:07:51.997Z,2.83
2019-05-26T16:10:20.715Z,3.63
2019-05-26T16:12:49.967Z,3.47
2019-05-26T16:15:18.465Z,3.70
2019-05-26T16:17:47.285Z,3.83
2019-05-26T16:20:16.075Z,3.80
2019-05-26T16:22:44.694Z,4.10
2019-05-26T16:25:13.195Z,3.57
2019-05-26T16:27:42.186Z,3.50
2019-05-26T16:30:11.129Z,3.93
2019-05-26T16:32:39.799Z,3.70
2019-05-26T16:35:08.765Z,4.60
2019-05-26T16:37:37.591Z,4.53
2019-05-26T16:40:06.389Z,4.20
2019-05-26T16:42:35.557Z,4.30
2019-05-26T16:45:04.446Z,4.80
2019-05-26T16:47:33.160Z,3.87
2019-05-26T16:50:02.204Z,4.00
2019-05-26T16:52:30.793Z,3.97
2019-05-26T16:54:59.250Z,4.00
2019-05-26T16:57:27.537Z,4.43
2019-05-26T16:59:56.245Z,4.53
2019-05-26T17:02:24.593Z,4.33
2019-05-26T17:04:53.513Z,4.27
2019-05-26T17:07:22.337Z,3.73
2019-05-26T17:09:51.222Z,3.97
2019-05-26T17:12:20.273Z,4.57
2019-05-26T17:14:49.330Z,4.20
2019-05-26T17:17:18.669Z,3.77
2019-05-26T17:19:47.971Z,4.20
2019-05-26T17:22:16.657Z,4.27
2019-05-26T17:24:45.271Z,4.43
2019-05-26T17:27:14.518Z,4.63
2019-05-26T17:29:42.915Z,4.43
2019-05-26T17:32:11.525Z,5.37
2019-05-26T17:34:40.088Z,4.63
2019-05-26T17:37:08.921Z,4.77
2019-05-26T17:39:37.787Z,4.50
2019-05-26T17:42:06.649Z,5.63
2019-05-26T17:44:35.060Z,4.97
2019-05-26T17:47:03.824Z,5.37
2019-05-26T17:49:32.636Z,5.50
2019-05-26T17:52:01.446Z,5.30
2019-05-26T17:54:29.738Z,6.07
2019-05-26T17:56:58.248Z,5.70
2019-05-26T17:59:26.948Z,5.30
2019-05-26T18:01:55.687Z,5.00
2019-05-26T18:04:24.284Z,5.20
2019-05-26T18:06:52.595Z,5.33
2019-05-26T18:09:21.384Z,5.67
2019-05-26T18:11:50.326Z,5.90
2019-05-26T18:14:18.594Z,6.30
2019-05-26T18:16:47.089Z,5.20
2019-05-26T18:19:15.442Z,5.63
2019-05-26T18:21:43.791Z,4.93
2019-05-26T18:24:13.417Z,5.50
2019-05-26T18:26:42.490Z,5.90
2019-05-26T18:29:11.793Z,5.80
2019-05-26T18:31:40.629Z,5.50
2019-05-26T18:34:09.438Z,5.57
2019-05-26T18:36:38.181Z,5.90
2019-05-26T18:39:07.310Z,4.50
2019-05-26T18:41:35.802Z,4.77
2019-05-26T18:44:04.755Z,5.87
2019-05-26T18:46:33.175Z,6.20
2019-05-26T18:49:01.792Z,4.73
2019-05-26T18:51:30.526Z,5.33
2019-05-26T18:53:59.573Z,5.90
2019-05-26T18:56:28.441Z,4.30
2019-05-26T18:58:57.253Z,5.00
2019-05-26T19:01:26.008Z,5.10
2019-05-26T19:03:54.936Z,4.93
2019-05-26T19:06:23.970Z,4.97
2019-05-26T19:08:52.575Z,4.53
2019-05-26T19:11:21.649Z,4.53
2019-05-26T19:13:50.202Z,4.73
2019-05-26T19:16:18.733Z,4.20
2019-05-26T19:18:47.254Z,4.50
2019-05-26T19:21:15.735Z,4.43
2019-05-26T19:23:44.198Z,5.07
2019-05-26T19:26:14.860Z,4.63
2019-05-26T19:28:43.610Z,5.30
2019-05-26T19:31:12.200Z,5.23
2019-05-26T19:33:40.949Z,4.77
2019-05-26T19:36:09.909Z,5.07
2019-05-26T19:38:38.720Z,4.53
2019-05-26T19:41:07.423Z,4.97
2019-05-26T19:43:36.367Z,4.57
2019-05-26T19:46:05.361Z,5.00
2019-05-26T19:48:36.941Z,4.33
2019-05-26T19:51:04.577Z,3.73
2019-05-26T19:53:33.253Z,4.27
2019-05-26T19:56:01.857Z,4.27
2019-05-26T19:58:30.900Z,4.07
2019-05-26T20:00:59.587Z,5.50
2019-05-26T20:03:28.871Z,5.03
2019-05-26T20:05:57.676Z,4.27
2019-05-26T20:08:26.312Z,5.67
2019-05-26T20:10:55.368Z,5.30
2019-05-26T20:13:24.075Z,4.93
2019-05-26T20:15:52.582Z,5.20
2019-05-26T20:18:21.307Z,5.30
2019-05-26T20:20:50.133Z,6.60
2019-05-26T20:23:19.042Z,4.50
2019-05-26T20:25:47.713Z,4.93
2019-05-26T20:28:16.361Z,4.93
2019-05-26T20:30:45.125Z,4.53
2019-05-26T20:33:13.709Z,4.50
2019-05-26T20:35:42.476Z,4.93
2019-05-26T20:38:11.402Z,4.47
2019-05-26T20:40:40.085Z,5.13
2019-05-26T20:43:08.863Z,5.00
2019-05-26T20:45:37.815Z,5.50
2019-05-26T20:48:06.621Z,4.77
2019-05-26T20:50:35.503Z,5.70
2019-05-26T20:53:04.145Z,5.27
2019-05-26T20:55:32.868Z,4.90
2019-05-26T20:58:01.551Z,5.17
2019-05-26T21:00:30.390Z,5.07
2019-05-26T21:02:58.854Z,5.13
2019-05-26T21:05:27.308Z,4.43
2019-05-26T21:07:55.845Z,4.43
2019-05-26T21:10:24.521Z,4.10
2019-05-26T21:12:52.948Z,4.13
2019-05-26T21:15:21.456Z,4.27
2019-05-26T21:17:51.005Z,4.83
2019-05-26T21:20:19.523Z,5.30
2019-05-26T21:22:48.279Z,4.53
2019-05-26T21:25:17.048Z,4.10
2019-05-26T21:27:45.629Z,4.30
2019-05-26T21:30:14.702Z,4.23
2019-05-26T21:32:43.367Z,4.13
2019-05-26T21:35:11.747Z,3.90
2019-05-26T21:37:40.075Z,4.73
2019-05-26T21:40:11.238Z,3.70
2019-05-26T21:42:39.335Z,4.00
2019-05-26T21:45:07.838Z,4.30
2019-05-26T21:47:36.607Z,5.00
2019-05-26T21:50:05.831Z,4.50
2019-05-26T21:52:37.740Z,4.73
2019-05-26T21:55:06.154Z,4.30
2019-05-26T21:57:34.651Z,4.03
2019-05-26T22:00:07.609Z,4.40
2019-05-26T22:02:38.041Z,4.60
2019-05-26T22:05:07.261Z,4.03
2019-05-26T22:07:38.788Z,4.07
2019-05-26T22:10:07.418Z,3.90
2019-05-26T22:12:35.913Z,3.77
2019-05-26T22:15:08.125Z,4.60
2019-05-26T22:17:36.560Z,3.67
2019-05-26T22:20:05.654Z,4.07
2019-05-26T22:22:33.980Z,4.30
2019-05-26T22:25:02.286Z,4.37
2019-05-26T22:27:30.871Z,4.77
2019-05-26T22:29:59.637Z,4.30
2019-05-26T22:32:28.208Z,4.13
2019-05-26T22:34:56.966Z,4.10
2019-05-26T22:37:28.188Z,4.23
2019-05-26T22:39:57.044Z,5.60
2019-05-26T22:42:25.765Z,4.20
2019-05-26T22:44:54.378Z,4.57
2019-05-26T22:47:23.693Z,4.20
2019-05-26T22:49:52.696Z,4.40
2019-05-26T22:52:21.288Z,4.37
2019-05-26T22:54:49.613Z,4.43
2019-05-26T22:57:18.054Z,4.00
2019-05-26T22:59:46.824Z,3.90
2019-05-26T23:02:15.367Z,4.13
2019-05-26T23:04:44.150Z,3.80
2019-05-26T23:07:12.728Z,4.47
2019-05-26T23:09:41.103Z,4.40
2019-05-26T23:12:09.558Z,3.80
2019-05-26T23:14:37.912Z,4.00
2019-05-26T23:17:06.705Z,3.77
2019-05-26T23:19:35.313Z,4.23
2019-05-26T23:22:03.675Z,3.60
2019-05-26T23:24:32.071Z,3.80
2019-05-26T23:27:00.499Z,3.67
2019-05-26T23:29:28.875Z,4.20
2019-05-26T23:31:57.123Z,3.60
2019-05-26T23:34:25.813Z,3.80
2019-05-26T23:36:54.498Z,3.87
2019-05-26T23:39:22.925Z,3.77
2019-05-26T23:41:51.398Z,4.03
2019-05-26T23:44:19.841Z,3.90
2019-05-26T23:46:48.301Z,4.45
2019-05-26T23:49:17.321Z,3.90
2019-05-26T23:51:45.748Z,4.47
2019-05-26T23:54:14.293Z,4.00
2019-05-26T23:56:42.915Z,4.10
2019-05-26T23:59:11.918Z,4.17
